createdAt,value
2022-11-22T00:00:42.244Z,24.08
2022-11-22T00:03:09.795Z,26.42
2022-11-22T00:05:37.089Z,27.65
2022-11-22T00:08:04.563Z,27.25
2022-11-22T00:10:31.449Z,30.58
2022-11-22T00:12:58.878Z,31.85
2022-11-22T00:15:26.522Z,32.35
2022-11-22T00:17:53.334Z,34.70
2022-11-22T00:20:20.397Z,34.00
2022-11-22T00:22:47.323Z,32.83
2022-11-22T00:25:15.233Z,38.35
2022-11-22T00:27:42.137Z,35.30
2022-11-22T00:30:09.856Z,36.78
2022-11-22T00:32:36.785Z,36.17
2022-11-22T00:35:04.585Z,32.30
2022-11-22T00:37:31.615Z,34.28
2022-11-22T00:39:58.439Z,33.78
2022-11-22T00:42:25.255Z,29.13
2022-11-22T00:44:52.286Z,30.10
2022-11-22T00:47:19.202Z,28.05
2022-11-22T00:49:45.993Z,29.27
2022-11-22T00:52:12.816Z,30.45
2022-11-22T00:54:39.636Z,26.65
2022-11-22T00:57:06.554Z,26.20
2022-11-22T00:59:33.752Z,26.48
2022-11-22T01:02:00.555Z,26.35
2022-11-22T01:04:27.373Z,26.10
2022-11-22T01:06:54.253Z,24.17
2022-11-22T01:09:23.202Z,23.75
2022-11-22T01:11:50.747Z,26.08
2022-11-22T01:14:18.641Z,24.30
2022-11-22T01:16:45.920Z,26.73
2022-11-22T01:19:13.112Z,21.98
2022-11-22T01:21:40.748Z,25.92
2022-11-22T01:24:08.001Z,22.00
2022-11-22T01:26:35.806Z,22.95
2022-11-22T01:29:02.688Z,24.08
2022-11-22T01:31:30.296Z,23.17
2022-11-22T01:33:59.262Z,20.27
2022-11-22T01:36:27.953Z,20.30
2022-11-22T01:38:55.412Z,19.15
2022-11-22T01:41:22.810Z,17.80
2022-11-22T01:43:50.459Z,19.08
2022-11-22T01:46:38.689Z,16.88
2022-11-22T01:49:17.187Z,18.48
2022-11-22T01:51:50.106Z,17.73
2022-11-22T01:54:23.145Z,16.65
2022-11-22T01:56:57.643Z,17.63
2022-11-22T01:59:29.041Z,16.13
2022-11-22T02:01:57.190Z,13.00
2022-11-22T02:04:26.291Z,17.92
2022-11-22T02:07:04.330Z,19.27
2022-11-22T02:09:33.097Z,17.65
2022-11-22T02:12:04.328Z,16.83
2022-11-22T02:14:32.146Z,19.52
2022-11-22T02:16:58.904Z,20.52
2022-11-22T02:20:02.601Z,21.05
2022-11-22T02:22:50.117Z,18.80
2022-11-22T02:25:41.755Z,24.05
2022-11-22T02:28:14.469Z,23.58
2022-11-22T02:30:42.373Z,20.33
2022-11-22T02:33:10.157Z,24.67
2022-11-22T02:35:37.066Z,24.00
2022-11-22T02:38:23.397Z,21.90
2022-11-22T02:40:58.561Z,26.73
2022-11-22T02:43:31.652Z,25.85
2022-11-22T02:46:12.146Z,27.23
2022-11-22T02:48:43.660Z,27.88
2022-11-22T02:51:16.817Z,23.48
2022-11-22T02:53:44.827Z,26.08
2022-11-22T02:56:11.825Z,27.95
2022-11-22T02:58:38.807Z,25.17
2022-11-22T03:01:05.734Z,28.92
2022-11-22T03:03:33.448Z,28.30
2022-11-22T03:06:00.406Z,28.45
2022-11-22T03:08:27.161Z,30.27
2022-11-22T03:10:54.126Z,33.20
2022-11-22T03:13:20.834Z,30.90
2022-11-22T03:15:48.219Z,32.60
2022-11-22T03:18:14.962Z,32.88
2022-11-22T03:20:41.858Z,33.97
2022-11-22T03:23:08.636Z,33.13
2022-11-22T03:25:39.530Z,31.38
2022-11-22T03:28:06.793Z,33.92
2022-11-22T03:30:34.045Z,33.63
2022-11-22T03:33:00.798Z,33.47
2022-11-22T03:35:27.658Z,35.92
2022-11-22T03:37:54.431Z,33.13
2022-11-22T03:40:21.437Z,34.15
2022-11-22T03:42:48.323Z,38.90
2022-11-22T03:45:15.134Z,33.60
2022-11-22T03:47:41.870Z,35.63
2022-11-22T03:50:09.297Z,36.33
2022-11-22T03:52:36.675Z,37.70
2022-11-22T03:55:03.567Z,40.28
2022-11-22T03:57:30.355Z,41.13
2022-11-22T03:59:57.364Z,38.80
2022-11-22T04:02:24.136Z,39.90
2022-11-22T04:04:50.898Z,41.90
2022-11-22T04:07:17.704Z,40.83
2022-11-22T04:09:44.517Z,44.33
2022-11-22T04:12:11.277Z,41.92
2022-11-22T04:14:56.593Z,44.80
2022-11-22T04:20:42.771Z,47.35
2022-11-22T04:23:11.813Z,44.17
2022-11-22T04:25:42.641Z,45.38
2022-11-22T04:28:11.624Z,48.83
2022-11-22T04:30:57.403Z,49.63
2022-11-22T04:33:25.207Z,52.72
2022-11-22T04:35:53.064Z,54.00
2022-11-22T04:38:20.073Z,55.33
2022-11-22T04:40:47.630Z,51.10
2022-11-22T04:43:43.015Z,50.38
2022-11-22T04:46:15.002Z,48.63
2022-11-22T04:48:42.436Z,46.70
2022-11-22T04:51:47.173Z,45.75
2022-11-22T04:54:13.985Z,43.33
2022-11-22T04:56:40.749Z,45.63
2022-11-22T04:59:07.553Z,44.58
2022-11-22T05:01:34.759Z,50.50
2022-11-22T05:04:01.543Z,44.03
2022-11-22T05:06:28.310Z,47.00
2022-11-22T05:08:55.278Z,48.28
2022-11-22T05:11:22.057Z,54.22
2022-11-22T05:13:48.806Z,61.38
2022-11-22T05:16:16.342Z,57.47
2022-11-22T05:18:43.352Z,66.05
2022-11-22T05:21:14.903Z,62.20
2022-11-22T05:23:56.708Z,57.22
2022-11-22T05:26:36.290Z,61.50
2022-11-22T05:29:11.361Z,51.70
2022-11-22T05:31:40.203Z,52.72
2022-11-22T05:34:07.510Z,58.20
2022-11-22T05:36:35.195Z,59.38
2022-11-22T05:39:02.333Z,53.40
2022-11-22T05:41:29.388Z,58.65
2022-11-22T05:43:56.929Z,60.70
2022-11-22T05:46:27.181Z,58.53
2022-11-22T05:48:56.560Z,59.08
2022-11-22T05:51:32.533Z,58.78
2022-11-22T05:54:02.372Z,63.65
2022-11-22T05:56:29.143Z,62.72
2022-11-22T05:58:55.943Z,61.00
2022-11-22T06:01:24.760Z,66.90
2022-11-22T06:03:52.435Z,65.00
2022-11-22T06:06:19.548Z,56.83
2022-11-22T06:08:48.385Z,56.42
2022-11-22T06:11:23.630Z,59.58
2022-11-22T06:16:19.959Z,56.22
2022-11-22T06:18:47.838Z,62.35
2022-11-22T06:21:19.174Z,56.63
2022-11-22T06:23:46.275Z,58.63
2022-11-22T06:26:16.649Z,53.97
2022-11-22T06:28:44.773Z,61.63
2022-11-22T06:31:24.390Z,69.40
2022-11-22T06:33:54.590Z,62.65
2022-11-22T06:36:25.116Z,66.90
2022-11-22T06:38:52.513Z,66.47
2022-11-22T06:41:25.476Z,80.35
2022-11-22T06:43:54.050Z,84.40
2022-11-22T06:46:24.290Z,71.32
2022-11-22T06:48:51.802Z,77.97
2022-11-22T06:51:27.599Z,80.28
2022-11-22T06:53:55.687Z,77.35
2022-11-22T06:56:25.175Z,84.28
2022-11-22T06:58:53.631Z,80.50
2022-11-22T07:01:23.713Z,78.80
2022-11-22T07:03:51.610Z,87.63
2022-11-22T07:06:19.652Z,83.93
2022-11-22T07:08:47.292Z,87.57
2022-11-22T07:11:24.671Z,75.38
2022-11-22T07:13:52.675Z,66.63
2022-11-22T07:16:21.778Z,83.95
2022-11-22T07:18:49.702Z,83.25
2022-11-22T07:21:23.081Z,71.93
2022-11-22T07:23:52.566Z,69.57
2022-11-22T07:26:22.380Z,80.20
2022-11-22T07:28:49.592Z,66.53
2022-11-22T07:31:18.390Z,77.80
2022-11-22T07:33:45.715Z,83.53
2022-11-22T07:36:22.150Z,70.82
2022-11-22T07:38:50.252Z,67.13
2022-11-22T07:41:19.811Z,63.53
2022-11-22T07:43:47.383Z,65.22
2022-11-22T07:46:34.561Z,71.28
2022-11-22T07:49:02.941Z,67.30
2022-11-22T07:51:30.198Z,64.10
2022-11-22T07:53:58.000Z,62.20
2022-11-22T07:56:24.888Z,57.13
2022-11-22T07:58:51.940Z,54.85
2022-11-22T08:01:20.011Z,59.88
2022-11-22T08:03:47.584Z,50.40
2022-11-22T08:06:15.957Z,63.75
2022-11-22T08:08:44.433Z,51.55
2022-11-22T08:11:12.352Z,53.60
2022-11-22T08:13:40.014Z,47.70
2022-11-22T08:16:14.871Z,51.35
2022-11-22T08:21:14.533Z,54.08
2022-11-22T08:23:43.239Z,49.45
2022-11-22T08:26:13.670Z,62.08
2022-11-22T08:28:42.096Z,53.70
2022-11-22T08:31:19.930Z,55.42
2022-11-22T08:33:47.998Z,53.35
2022-11-22T08:36:14.910Z,60.72
2022-11-22T08:38:42.167Z,53.58
2022-11-22T08:41:08.977Z,55.95
2022-11-22T08:43:36.079Z,51.15
2022-11-22T08:46:03.915Z,50.50
2022-11-22T08:48:34.946Z,51.15
2022-11-22T08:51:05.535Z,64.38
2022-11-22T08:53:36.114Z,62.50
2022-11-22T08:56:05.430Z,57.90
2022-11-22T08:58:34.206Z,52.97
2022-11-22T09:01:07.134Z,51.28
2022-11-22T09:03:35.912Z,48.95
2022-11-22T09:09:15.010Z,49.25
2022-11-22T09:11:44.131Z,45.65
2022-11-22T09:14:10.886Z,49.55
2022-11-22T09:16:37.745Z,52.83
2022-11-22T09:19:04.649Z,47.85
2022-11-22T09:21:31.406Z,53.15
2022-11-22T09:23:58.181Z,44.83
2022-11-22T09:26:25.392Z,47.83
2022-11-22T09:28:53.445Z,51.00
2022-11-22T09:31:22.199Z,47.97
2022-11-22T09:33:50.243Z,41.70
2022-11-22T09:36:22.765Z,65.55
2022-11-22T09:38:50.836Z,43.25
2022-11-22T09:41:17.545Z,43.17
2022-11-22T09:44:21.014Z,39.03
2022-11-22T09:47:30.274Z,41.33
2022-11-22T09:50:19.227Z,37.50
2022-11-22T09:53:03.898Z,38.88
2022-11-22T09:55:36.877Z,25.58
2022-11-22T09:58:31.027Z,33.88
2022-11-22T10:01:10.841Z,34.75
2022-11-22T10:03:56.289Z,30.00
2022-11-22T10:09:10.978Z,27.35
2022-11-22T10:11:55.695Z,28.23
2022-11-22T10:14:47.174Z,33.58
2022-11-22T10:17:50.762Z,26.77
2022-11-22T10:20:31.950Z,29.13
2022-11-22T10:22:59.769Z,25.20
2022-11-22T10:25:46.022Z,27.17
2022-11-22T10:28:32.684Z,20.48
2022-11-22T10:31:17.876Z,22.27
2022-11-22T10:33:59.663Z,24.52
2022-11-22T10:36:42.692Z,21.80
2022-11-22T10:39:49.202Z,22.58
2022-11-22T10:42:27.372Z,27.00
2022-11-22T10:45:10.313Z,23.35
2022-11-22T10:47:45.067Z,23.08
2022-11-22T10:50:30.905Z,29.83
2022-11-22T10:53:05.765Z,28.33
2022-11-22T10:58:32.265Z,25.25
2022-11-22T11:01:35.172Z,27.73
2022-11-22T11:04:05.672Z,20.67
2022-11-22T11:07:11.082Z,23.73
2022-11-22T11:12:43.264Z,22.40
2022-11-22T11:15:38.438Z,21.25
2022-11-22T11:18:13.921Z,20.40
2022-11-22T11:20:43.887Z,21.02
2022-11-22T11:23:15.727Z,25.90
2022-11-22T11:25:46.124Z,21.10
2022-11-22T11:28:23.377Z,21.35
2022-11-22T11:31:08.548Z,16.95
2022-11-22T11:33:38.937Z,20.02
2022-11-22T11:36:22.508Z,18.40
2022-11-22T11:38:56.700Z,23.25
2022-11-22T11:41:32.705Z,20.07
2022-11-22T11:44:02.875Z,19.08
2022-11-22T11:46:45.729Z,19.50
2022-11-22T11:49:25.283Z,20.73
2022-11-22T11:52:02.167Z,22.50
2022-11-22T11:54:43.820Z,19.48
2022-11-22T11:57:21.970Z,20.35
2022-11-22T11:59:54.066Z,19.77
2022-11-22T12:02:40.889Z,16.02
2022-11-22T12:05:13.630Z,18.10
2022-11-22T12:07:41.994Z,16.75
2022-11-22T12:10:39.752Z,16.92
2022-11-22T12:13:27.757Z,16.10
2022-11-22T12:16:01.102Z,22.15
2022-11-22T12:18:27.865Z,18.92
2022-11-22T12:21:03.279Z,20.05
2022-11-22T12:24:34.919Z,17.17
2022-11-22T12:26:56.468Z,17.17
2022-11-22T12:29:23.902Z,17.67
2022-11-22T12:32:13.306Z,15.43
2022-11-22T12:35:12.168Z,21.15
2022-11-22T12:37:48.023Z,14.20
2022-11-22T12:40:26.789Z,14.40
2022-11-22T12:42:59.754Z,19.92
2022-11-22T12:45:41.180Z,14.07
2022-11-22T12:48:21.598Z,15.10
2022-11-22T12:51:01.315Z,14.95
2022-11-22T12:53:31.747Z,18.67
2022-11-22T12:56:09.948Z,15.88
2022-11-22T12:58:52.486Z,16.30
2022-11-22T13:01:36.239Z,16.80
2022-11-22T13:04:09.452Z,13.55
2022-11-22T13:07:02.502Z,12.88
2022-11-22T13:09:37.238Z,16.88
2022-11-22T13:12:21.100Z,15.88
2022-11-22T13:14:56.350Z,15.70
2022-11-22T13:17:25.228Z,13.10
2022-11-22T13:20:07.175Z,18.17
2022-11-22T13:23:02.157Z,15.15
2022-11-22T13:26:14.697Z,17.47
2022-11-22T13:28:44.605Z,16.13
2022-11-22T13:31:11.677Z,17.80
2022-11-22T13:33:43.642Z,16.35
2022-11-22T13:36:29.608Z,15.10
2022-11-22T13:38:59.382Z,17.17
2022-11-22T13:41:36.734Z,15.95
2022-11-22T13:44:39.536Z,13.82
2022-11-22T13:47:24.606Z,14.70
2022-11-22T13:49:54.029Z,14.35
2022-11-22T13:52:20.885Z,13.23
2022-11-22T13:54:47.725Z,13.82
2022-11-22T13:57:38.577Z,12.35
2022-11-22T14:00:14.509Z,14.75
2022-11-22T14:03:12.018Z,14.60
2022-11-22T14:05:42.044Z,15.02
2022-11-22T14:08:42.467Z,12.50
2022-11-22T14:11:49.006Z,12.18
2022-11-22T14:14:42.167Z,10.27
2022-11-22T14:17:37.105Z,13.38
2022-11-22T14:20:20.409Z,12.45
2022-11-22T14:23:34.468Z,12.45
2022-11-22T14:26:03.843Z,11.13
2022-11-22T14:29:49.405Z,11.85
2022-11-22T14:32:23.093Z,13.35
2022-11-22T14:35:04.823Z,12.05
2022-11-22T14:37:32.003Z,12.38
2022-11-22T14:40:08.745Z,12.15
2022-11-22T14:42:43.608Z,12.48
2022-11-22T14:45:10.419Z,15.38
2022-11-22T14:47:58.670Z,17.30
2022-11-22T14:50:37.439Z,16.20
2022-11-22T14:53:30.261Z,13.30
2022-11-22T14:56:16.367Z,21.55
2022-11-22T14:59:36.879Z,14.43
2022-11-22T15:02:55.464Z,11.68
2022-11-22T15:09:20.088Z,14.88
2022-11-22T15:09:46.973Z,9.38
2022-11-22T15:12:40.773Z,12.57
2022-11-22T15:57:35.811Z,13.68
2022-11-22T16:00:03.511Z,12.70
2022-11-22T16:02:32.464Z,11.27
2022-11-22T16:06:05.998Z,12.55
2022-11-22T16:07:57.018Z,11.63
2022-11-22T16:10:39.194Z,9.07
2022-11-22T16:13:21.183Z,12.50
2022-11-22T16:16:27.159Z,10.63
2022-11-22T16:18:54.576Z,8.27
2022-11-22T16:21:29.047Z,10.68
2022-11-22T16:24:19.452Z,7.68
2022-11-22T16:26:56.244Z,8.07
2022-11-22T16:29:33.020Z,7.25
2022-11-22T16:32:06.722Z,9.57
2022-11-22T16:34:33.538Z,9.63
2022-11-22T16:37:00.510Z,11.13
2022-11-22T16:39:27.728Z,16.88
2022-11-22T16:41:54.562Z,10.85
2022-11-22T16:44:22.145Z,13.05
2022-11-22T16:46:48.953Z,12.75
2022-11-22T16:49:18.917Z,11.68
2022-11-22T16:51:50.289Z,12.20
2022-11-22T16:54:21.614Z,15.18
2022-11-22T16:56:48.449Z,13.32
2022-11-22T16:59:15.525Z,17.42
2022-11-22T17:01:43.830Z,16.85
2022-11-22T17:04:23.487Z,15.65
2022-11-22T17:06:51.389Z,16.42
2022-11-22T17:09:18.243Z,19.60
2022-11-22T17:11:45.724Z,18.92
2022-11-22T17:14:15.672Z,20.05
2022-11-22T17:16:43.287Z,15.00
2022-11-22T17:19:30.251Z,14.27
2022-11-22T17:21:57.230Z,22.67
2022-11-22T17:24:24.100Z,17.13
2022-11-22T17:26:50.925Z,16.35
2022-11-22T17:29:43.269Z,17.45
2022-11-22T17:32:05.244Z,15.43
2022-11-22T17:34:32.392Z,19.98
2022-11-22T17:36:59.341Z,16.75
2022-11-22T17:39:26.114Z,15.18
2022-11-22T17:41:52.880Z,19.73
2022-11-22T17:44:19.779Z,14.32
2022-11-22T17:46:47.354Z,14.02
2022-11-22T17:49:16.354Z,16.27
2022-11-22T17:51:43.371Z,14.30
2022-11-22T17:54:10.319Z,19.02
2022-11-22T17:56:37.806Z,15.95
2022-11-22T17:59:05.477Z,17.40
2022-11-22T18:01:32.492Z,19.35
2022-11-22T18:03:59.362Z,23.15
2022-11-22T18:06:29.636Z,18.08
2022-11-22T18:08:56.416Z,19.92
2022-11-22T18:11:23.230Z,25.67
2022-11-22T18:13:49.976Z,22.38
2022-11-22T18:16:18.288Z,22.15
2022-11-22T18:18:56.700Z,22.20
2022-11-22T18:21:24.796Z,22.55
2022-11-22T18:23:51.674Z,25.05
2022-11-22T18:31:53.215Z,19.38
2022-11-22T18:34:22.089Z,18.00
2022-11-22T18:37:00.836Z,19.98
2022-11-22T18:39:38.548Z,19.50
2022-11-22T18:42:12.497Z,18.42
2022-11-22T18:44:39.311Z,14.93
2022-11-22T18:47:06.282Z,16.23
2022-11-22T18:49:33.800Z,16.83
2022-11-22T18:52:01.126Z,20.75
2022-11-22T18:54:27.936Z,20.05
2022-11-22T18:56:54.875Z,17.05
2022-11-22T18:59:21.737Z,23.40
2022-11-22T19:01:48.610Z,21.52
2022-11-22T19:04:16.082Z,18.58
2022-11-22T19:06:44.429Z,18.42
2022-11-22T19:09:11.422Z,24.42
2022-11-22T19:11:38.440Z,22.30
2022-11-22T19:14:05.996Z,25.02
2022-11-22T19:16:32.935Z,21.58
2022-11-22T19:19:00.460Z,25.30
2022-11-22T19:21:28.899Z,27.17
2022-11-22T19:23:56.964Z,25.02
2022-11-22T19:26:27.088Z,25.58
2022-11-22T19:28:55.987Z,24.55
2022-11-22T19:31:28.029Z,34.10
2022-11-22T19:33:55.357Z,32.10
2022-11-22T19:36:30.750Z,53.42
2022-11-22T19:38:59.815Z,64.00
2022-11-22T19:41:27.097Z,49.60
2022-11-22T19:43:55.973Z,44.20
2022-11-22T19:46:23.605Z,32.35
2022-11-22T19:48:52.835Z,28.48
2022-11-22T19:51:20.035Z,31.73
2022-11-22T19:53:47.087Z,24.65
2022-11-22T19:56:17.517Z,23.17
2022-11-22T19:58:50.298Z,26.10
2022-11-22T20:01:17.756Z,23.88
2022-11-22T20:03:45.073Z,20.25
2022-11-22T20:06:14.473Z,20.00
2022-11-22T20:08:41.689Z,25.92
2022-11-22T20:11:15.641Z,22.35
2022-11-22T20:13:46.241Z,29.90
2022-11-22T20:16:28.837Z,26.63
2022-11-22T20:19:05.288Z,30.60
2022-11-22T20:21:34.456Z,41.83
2022-11-22T20:24:02.456Z,49.45
2022-11-22T20:26:31.202Z,57.88
2022-11-22T20:29:05.025Z,61.47
2022-11-22T20:31:34.312Z,57.20
2022-11-22T20:34:02.017Z,55.72
2022-11-22T20:36:32.613Z,49.28
2022-11-22T20:39:01.899Z,64.40
2022-11-22T20:41:32.466Z,60.10
2022-11-22T20:43:59.225Z,75.55
2022-11-22T20:46:28.560Z,67.75
2022-11-22T20:48:56.813Z,63.33
2022-11-22T20:51:29.039Z,49.50
2022-11-22T20:53:57.437Z,39.85
2022-11-22T20:56:25.508Z,39.00
2022-11-22T20:58:52.671Z,32.92
2022-11-22T21:01:23.476Z,32.35
2022-11-22T21:03:51.468Z,34.17
2022-11-22T21:06:21.348Z,26.55
2022-11-22T21:08:48.588Z,24.88
2022-11-22T21:11:22.223Z,32.15
2022-11-22T21:13:49.706Z,24.65
2022-11-22T21:16:24.446Z,29.70
2022-11-22T21:19:05.207Z,25.15
2022-11-22T21:21:34.908Z,27.40
2022-11-22T21:24:03.970Z,24.27
2022-11-22T21:26:32.021Z,28.60
2022-11-22T21:28:59.898Z,26.30
2022-11-22T21:31:27.989Z,36.35
2022-11-22T21:33:54.833Z,38.45
2022-11-22T21:36:21.871Z,32.72
2022-11-22T21:38:49.207Z,25.83
2022-11-22T21:44:07.587Z,27.17
2022-11-22T21:46:34.427Z,29.63
2022-11-22T21:49:01.279Z,27.83
2022-11-22T21:51:28.531Z,30.52
2022-11-22T21:54:00.091Z,25.65
2022-11-22T21:56:27.340Z,22.98
2022-11-22T21:58:54.617Z,27.88
2022-11-22T22:01:22.523Z,31.10
2022-11-22T22:03:49.735Z,28.88
2022-11-22T22:06:16.561Z,25.88
2022-11-22T22:08:43.369Z,24.73
2022-11-22T22:11:10.259Z,27.33
2022-11-22T22:13:37.370Z,27.38
2022-11-22T22:16:12.849Z,26.23
2022-11-22T22:18:40.058Z,28.13
2022-11-22T22:21:09.549Z,27.67
2022-11-22T22:23:38.734Z,27.27
2022-11-22T22:26:09.109Z,25.77
2022-11-22T22:28:38.494Z,30.73
2022-11-22T22:31:17.514Z,27.80
2022-11-22T22:33:45.863Z,28.95
2022-11-22T22:36:13.702Z,24.67
2022-11-22T22:38:40.961Z,23.75
2022-11-22T22:41:12.126Z,21.00
2022-11-22T22:43:42.228Z,26.88
2022-11-22T22:46:21.266Z,28.13
2022-11-22T22:48:49.818Z,24.27
2022-11-22T22:51:30.692Z,27.27
2022-11-22T22:54:00.695Z,21.17
2022-11-22T22:56:30.265Z,18.63
2022-11-22T22:58:58.509Z,21.35
2022-11-22T23:01:30.114Z,24.20
2022-11-22T23:03:59.534Z,21.10
2022-11-22T23:06:29.381Z,18.77
2022-11-22T23:08:56.869Z,29.60
2022-11-22T23:11:48.305Z,21.27
2022-11-22T23:14:19.229Z,23.83
2022-11-22T23:16:46.349Z,19.30
2022-11-22T23:19:13.593Z,26.77
2022-11-22T23:21:40.947Z,24.15
2022-11-22T23:24:08.864Z,24.17
2022-11-22T23:26:36.507Z,19.33
2022-11-22T23:29:04.386Z,20.38
2022-11-22T23:31:31.700Z,17.45
2022-11-22T23:34:01.188Z,26.10
2022-11-22T23:36:29.251Z,22.20
2022-11-22T23:38:56.257Z,22.77
2022-11-22T23:41:25.118Z,30.38
2022-11-22T23:43:54.556Z,24.38
2022-11-22T23:46:22.546Z,29.83
2022-11-22T23:48:57.242Z,26.20
2022-11-22T23:51:25.421Z,24.20
2022-11-22T23:54:00.924Z,21.63
2022-11-22T23:56:29.464Z,27.50
2022-11-22T23:58:59.528Z,23.83
